createdAt,value
2019-03-30T00:00:50.010Z,89.29
2019-03-30T00:01:49.999Z,89.25
2019-03-30T00:02:50.012Z,89.36
2019-03-30T00:03:50.004Z,88.99
2019-03-30T00:04:49.970Z,89.09
2019-03-30T00:05:49.956Z,89.91
2019-03-30T00:06:49.946Z,89.09
2019-03-30T00:07:49.932Z,90.08
2019-03-30T00:08:49.931Z,89.97
2019-03-30T00:09:49.915Z,89.97
2019-03-30T00:10:49.902Z,89.46
2019-03-30T00:11:49.896Z,90.01
2019-03-30T00:12:49.879Z,89.15
2019-03-30T00:13:49.877Z,90.08
2019-03-30T00:14:49.877Z,89.50
2019-03-30T00:15:49.841Z,90.33
2019-03-30T00:16:49.828Z,89.81
2019-03-30T00:17:49.818Z,89.91
2019-03-30T00:18:49.809Z,89.81
2019-03-30T00:19:49.798Z,89.91
2019-03-30T00:20:49.815Z,90.33
2019-03-30T00:21:49.771Z,89.61
2019-03-30T00:22:49.763Z,89.91
2019-03-30T00:23:49.754Z,89.61
2019-03-30T00:24:49.738Z,89.91
2019-03-30T00:25:49.731Z,89.91
2019-03-30T00:26:49.731Z,89.71
2019-03-30T00:27:49.708Z,90.01
2019-03-30T00:28:49.696Z,89.61
2019-03-30T00:29:49.687Z,89.75
2019-03-30T00:30:49.892Z,89.75
2019-03-30T00:31:49.675Z,89.85
2019-03-30T00:32:49.650Z,90.06
2019-03-30T00:33:49.637Z,90.06
2019-03-30T00:34:49.626Z,90.16
2019-03-30T00:35:49.615Z,90.26
2019-03-30T00:36:49.603Z,89.17
2019-03-30T00:37:49.601Z,89.23
2019-03-30T00:38:49.603Z,89.54
2019-03-30T00:39:49.571Z,89.13
2019-03-30T00:40:49.769Z,89.13
2019-03-30T00:41:49.547Z,90.26
2019-03-30T00:42:49.543Z,89.95
2019-03-30T00:43:49.531Z,89.65
2019-03-30T00:44:49.535Z,89.89
2019-03-30T00:45:49.508Z,89.89
2019-03-30T00:46:49.495Z,90.06
2019-03-30T00:47:49.481Z,89.79
2019-03-30T00:48:49.787Z,90.31
2019-03-30T00:49:50.264Z,90.10
2019-03-30T00:50:49.458Z,89.79
2019-03-30T00:51:49.463Z,91.03
2019-03-30T00:52:49.427Z,90.82
2019-03-30T00:53:49.411Z,90.92
2019-03-30T00:54:49.400Z,90.72
2019-03-30T00:55:49.395Z,90.61
2019-03-30T00:56:49.380Z,91.34
2019-03-30T00:57:49.380Z,91.54
2019-03-30T00:58:49.357Z,91.24
2019-03-30T00:59:49.347Z,91.58
2019-03-30T01:00:49.357Z,91.07
2019-03-30T01:01:49.324Z,90.97
2019-03-30T01:02:49.328Z,90.86
2019-03-30T01:03:49.312Z,90.86
2019-03-30T01:04:49.294Z,91.07
2019-03-30T01:05:49.276Z,91.07
2019-03-30T01:06:49.264Z,91.38
2019-03-30T01:07:49.254Z,91.38
2019-03-30T01:08:49.260Z,91.89
2019-03-30T01:09:49.236Z,92.10
2019-03-30T01:10:49.232Z,92.51
2019-03-30T01:11:49.210Z,92.10
2019-03-30T01:12:49.199Z,92.41
2019-03-30T01:13:49.189Z,92.72
2019-03-30T01:14:49.175Z,92.51
2019-03-30T01:15:49.187Z,92.00
2019-03-30T01:16:49.154Z,92.31
2019-03-30T01:17:49.144Z,92.00
2019-03-30T01:18:49.129Z,92.21
2019-03-30T01:20:01.967Z,92.35
2019-03-30T01:20:50.137Z,92.31
2019-03-30T01:21:49.099Z,92.35
2019-03-30T01:22:49.091Z,91.94
2019-03-30T01:23:49.071Z,92.46
2019-03-30T01:24:49.060Z,92.25
2019-03-30T01:25:49.052Z,92.25
2019-03-30T01:26:49.048Z,92.76
2019-03-30T01:27:49.027Z,92.97
2019-03-30T01:28:49.026Z,93.18
2019-03-30T01:29:49.005Z,93.07
2019-03-30T01:30:48.996Z,93.79
2019-03-30T01:31:49.000Z,93.90
2019-03-30T01:32:48.987Z,93.38
2019-03-30T01:33:48.974Z,93.59
2019-03-30T01:34:48.951Z,93.38
2019-03-30T01:35:48.939Z,93.38
2019-03-30T01:36:48.931Z,93.18
2019-03-30T01:37:48.916Z,93.38
2019-03-30T01:38:48.904Z,93.90
2019-03-30T01:39:48.904Z,93.49
2019-03-30T01:40:48.887Z,93.12
2019-03-30T01:41:48.873Z,92.97
2019-03-30T01:42:48.862Z,92.80
2019-03-30T01:43:48.851Z,93.07
2019-03-30T01:44:48.852Z,93.07
2019-03-30T01:45:48.828Z,93.01
2019-03-30T01:46:48.815Z,93.12
2019-03-30T01:47:48.808Z,93.01
2019-03-30T01:48:48.795Z,93.32
2019-03-30T01:49:48.783Z,93.22
2019-03-30T01:50:48.790Z,93.63
2019-03-30T01:51:48.758Z,92.91
2019-03-30T01:52:48.751Z,93.94
2019-03-30T01:53:48.732Z,93.84
2019-03-30T01:54:48.723Z,93.94
2019-03-30T01:55:48.713Z,93.43
2019-03-30T01:56:48.713Z,93.43
2019-03-30T01:57:48.688Z,93.22
2019-03-30T01:58:48.680Z,93.84
2019-03-30T01:59:48.668Z,93.73
2019-03-30T02:00:48.657Z,93.94
2019-03-30T02:01:48.660Z,93.94
2019-03-30T02:02:48.635Z,93.78
2019-03-30T02:03:48.667Z,93.32
2019-03-30T02:04:48.612Z,93.78
2019-03-30T02:05:48.603Z,93.78
2019-03-30T02:06:48.585Z,94.09
2019-03-30T02:07:48.588Z,93.47
2019-03-30T02:08:48.567Z,93.57
2019-03-30T02:09:48.553Z,93.88
2019-03-30T02:10:48.549Z,94.09
2019-03-30T02:11:48.535Z,93.88
2019-03-30T02:12:48.536Z,94.09
2019-03-30T02:13:48.520Z,93.98
2019-03-30T02:14:48.521Z,94.09
2019-03-30T02:15:48.488Z,94.09
2019-03-30T02:16:48.474Z,94.60
2019-03-30T02:17:48.463Z,94.40
2019-03-30T02:18:48.464Z,93.98
2019-03-30T02:19:48.443Z,93.88
2019-03-30T02:20:48.427Z,94.19
2019-03-30T02:21:48.418Z,93.88
2019-03-30T02:22:48.407Z,93.68
2019-03-30T02:23:48.410Z,94.09
2019-03-30T02:24:48.386Z,94.60
2019-03-30T02:25:48.377Z,93.78
2019-03-30T02:26:48.364Z,93.88
2019-03-30T02:27:48.355Z,93.98
2019-03-30T02:28:48.343Z,93.82
2019-03-30T02:29:48.345Z,93.78
2019-03-30T02:30:48.323Z,93.72
2019-03-30T02:31:48.311Z,93.57
2019-03-30T02:32:48.300Z,94.13
2019-03-30T02:33:48.288Z,93.93
2019-03-30T02:34:48.297Z,93.82
2019-03-30T02:35:48.266Z,93.62
2019-03-30T02:36:48.259Z,93.72
2019-03-30T02:37:48.239Z,93.93
2019-03-30T02:38:48.230Z,93.82
2019-03-30T02:39:48.232Z,93.93
2019-03-30T02:40:48.205Z,93.78
2019-03-30T02:41:48.336Z,94.13
2019-03-30T02:42:48.271Z,93.82
2019-03-30T02:43:48.172Z,94.18
2019-03-30T02:44:48.161Z,94.13
2019-03-30T02:45:48.173Z,93.82
2019-03-30T02:46:48.142Z,93.82
2019-03-30T02:47:48.131Z,94.03
2019-03-30T02:48:48.120Z,93.66
2019-03-30T02:49:48.108Z,93.41
2019-03-30T02:50:50.321Z,93.76
2019-03-30T02:51:48.102Z,94.23
2019-03-30T02:52:48.072Z,94.54
2019-03-30T02:53:48.064Z,93.97
2019-03-30T02:54:48.048Z,94.34
2019-03-30T02:55:48.051Z,94.48
2019-03-30T02:56:48.033Z,94.18
2019-03-30T02:57:48.041Z,94.18
2019-03-30T02:58:48.004Z,93.97
2019-03-30T02:59:47.999Z,93.45
2019-03-30T03:00:47.984Z,93.87
2019-03-30T03:01:47.970Z,93.97
2019-03-30T03:02:47.960Z,93.87
2019-03-30T03:03:47.957Z,93.87
2019-03-30T03:04:47.943Z,93.76
2019-03-30T03:05:47.930Z,93.45
2019-03-30T03:06:47.920Z,93.97
2019-03-30T03:07:47.908Z,93.97
2019-03-30T03:08:48.019Z,94.07
2019-03-30T03:09:47.896Z,94.38
2019-03-30T03:10:47.885Z,94.28
2019-03-30T03:11:47.858Z,94.28
2019-03-30T03:12:47.847Z,94.18
2019-03-30T03:13:47.857Z,94.18
2019-03-30T03:14:47.837Z,94.18
2019-03-30T03:15:47.821Z,93.91
2019-03-30T03:16:47.802Z,94.12
2019-03-30T03:17:47.795Z,93.97
2019-03-30T03:18:47.796Z,94.01
2019-03-30T03:19:47.774Z,93.70
2019-03-30T03:21:06.105Z,93.60
2019-03-30T03:21:48.745Z,93.80
2019-03-30T03:22:47.737Z,93.91
2019-03-30T03:23:47.727Z,93.91
2019-03-30T03:24:47.716Z,94.22
2019-03-30T03:25:47.705Z,93.95
2019-03-30T03:26:47.703Z,93.91
2019-03-30T03:27:47.696Z,94.12
2019-03-30T03:28:47.665Z,94.16
2019-03-30T03:29:47.668Z,94.16
2019-03-30T03:30:47.644Z,94.06
2019-03-30T03:31:47.634Z,94.37
2019-03-30T03:32:47.632Z,94.26
2019-03-30T03:33:47.642Z,94.16
2019-03-30T03:34:47.604Z,94.06
2019-03-30T03:35:47.586Z,94.57
2019-03-30T03:36:47.582Z,94.26
2019-03-30T03:37:47.567Z,94.47
2019-03-30T03:38:47.568Z,94.57
2019-03-30T03:39:47.561Z,94.68
2019-03-30T03:40:47.536Z,94.78
2019-03-30T03:41:47.530Z,94.26
2019-03-30T03:42:47.604Z,94.98
2019-03-30T03:43:47.501Z,95.50
2019-03-30T03:44:47.508Z,95.19
2019-03-30T03:45:47.480Z,95.50
2019-03-30T03:46:47.475Z,94.98
2019-03-30T03:47:47.489Z,94.98
2019-03-30T03:48:47.450Z,95.29
2019-03-30T03:49:47.455Z,95.92
2019-03-30T03:50:47.435Z,95.71
2019-03-30T03:51:47.417Z,95.19
2019-03-30T03:52:47.397Z,95.81
2019-03-30T03:53:47.415Z,95.29
2019-03-30T03:54:47.387Z,95.19
2019-03-30T03:55:47.370Z,95.19
2019-03-30T03:56:47.370Z,95.61
2019-03-30T03:57:47.342Z,95.61
2019-03-30T03:58:47.346Z,95.50
2019-03-30T03:59:47.329Z,95.44
2019-03-30T04:00:47.312Z,95.40
2019-03-30T04:01:47.321Z,95.54
2019-03-30T04:02:47.290Z,95.24
2019-03-30T04:03:47.274Z,95.14
2019-03-30T04:04:47.880Z,95.34
2019-03-30T04:05:47.324Z,95.24
2019-03-30T04:06:47.240Z,95.03
2019-03-30T04:07:47.250Z,95.03
2019-03-30T04:08:47.218Z,95.14
2019-03-30T04:09:47.211Z,95.44
2019-03-30T04:10:47.210Z,95.14
2019-03-30T04:11:47.185Z,95.44
2019-03-30T04:12:47.193Z,95.14
2019-03-30T04:13:47.177Z,95.44
2019-03-30T04:14:47.158Z,95.65
2019-03-30T04:15:47.150Z,95.39
2019-03-30T04:16:47.133Z,95.34
2019-03-30T04:17:47.117Z,95.49
2019-03-30T04:18:48.230Z,95.34
2019-03-30T04:19:47.121Z,95.49
2019-03-30T04:20:47.092Z,95.18
2019-03-30T04:21:47.077Z,95.80
2019-03-30T04:22:47.065Z,95.39
2019-03-30T04:23:47.081Z,95.49
2019-03-30T04:24:47.037Z,95.18
2019-03-30T04:25:47.034Z,95.49
2019-03-30T04:26:47.022Z,95.80
2019-03-30T04:27:47.016Z,95.59
2019-03-30T04:28:46.999Z,95.59
2019-03-30T04:29:46.997Z,96.83
2019-03-30T04:30:46.969Z,95.86
2019-03-30T04:31:46.974Z,95.80
2019-03-30T04:32:46.958Z,95.59
2019-03-30T04:33:46.942Z,95.80
2019-03-30T04:34:46.932Z,95.70
2019-03-30T04:35:46.943Z,95.49
2019-03-30T04:36:46.915Z,95.90
2019-03-30T04:37:46.901Z,96.01
2019-03-30T04:38:46.890Z,95.49
2019-03-30T04:39:46.872Z,95.70
2019-03-30T04:40:46.880Z,96.01
2019-03-30T04:41:46.853Z,95.70
2019-03-30T04:42:46.838Z,95.80
2019-03-30T04:43:46.829Z,96.11
2019-03-30T04:44:46.818Z,96.52
2019-03-30T04:45:46.805Z,96.83
2019-03-30T04:46:46.808Z,96.73
2019-03-30T04:47:46.805Z,96.21
2019-03-30T04:48:46.776Z,95.95
2019-03-30T04:49:46.761Z,95.95
2019-03-30T04:50:46.746Z,95.74
2019-03-30T04:51:57.002Z,96.57
2019-03-30T04:52:47.748Z,96.78
2019-03-30T04:53:46.713Z,96.52
2019-03-30T04:54:46.705Z,96.52
2019-03-30T04:55:46.700Z,96.47
2019-03-30T04:56:46.721Z,96.67
2019-03-30T04:57:49.852Z,96.42
2019-03-30T04:58:46.766Z,96.26
2019-03-30T04:59:46.645Z,96.21
2019-03-30T05:00:46.645Z,96.21
2019-03-30T05:01:46.624Z,96.42
2019-03-30T05:02:46.615Z,96.62
2019-03-30T05:03:46.609Z,96.42
2019-03-30T05:04:46.623Z,96.36
2019-03-30T05:05:46.597Z,96.73
2019-03-30T05:06:46.572Z,96.67
2019-03-30T05:07:46.612Z,96.57
2019-03-30T05:08:46.546Z,96.57
2019-03-30T05:09:46.541Z,96.15
2019-03-30T05:10:46.557Z,95.84
2019-03-30T05:11:46.515Z,96.01
2019-03-30T05:12:46.633Z,95.84
2019-03-30T05:13:46.513Z,95.84
2019-03-30T05:14:46.482Z,95.95
2019-03-30T05:15:46.473Z,95.84
2019-03-30T05:16:46.480Z,95.95
2019-03-30T05:17:48.078Z,95.74
2019-03-30T05:18:46.452Z,96.05
2019-03-30T05:19:46.424Z,96.98
2019-03-30T05:20:46.497Z,96.88
2019-03-30T05:21:46.407Z,96.67
2019-03-30T05:22:46.393Z,96.78
2019-03-30T05:23:46.378Z,96.47
2019-03-30T05:24:46.381Z,96.15
2019-03-30T05:25:46.359Z,97.09
2019-03-30T05:26:46.342Z,97.19
2019-03-30T05:27:46.334Z,97.09
2019-03-30T05:28:46.325Z,96.98
2019-03-30T05:29:46.345Z,97.04
2019-03-30T05:30:46.314Z,96.78
2019-03-30T05:31:46.294Z,96.94
2019-03-30T05:32:46.277Z,96.83
2019-03-30T05:33:46.270Z,96.88
2019-03-30T05:34:46.269Z,96.15
2019-03-30T05:35:46.260Z,96.88
2019-03-30T05:36:46.233Z,97.04
2019-03-30T05:37:46.219Z,97.09
2019-03-30T05:38:46.217Z,97.19
2019-03-30T05:39:46.213Z,96.78
2019-03-30T05:40:46.192Z,97.35
2019-03-30T05:41:46.199Z,97.14
2019-03-30T05:42:46.164Z,97.29
2019-03-30T05:43:46.151Z,96.98
2019-03-30T05:44:46.144Z,97.19
2019-03-30T05:45:46.127Z,97.19
2019-03-30T05:46:46.122Z,97.60
2019-03-30T05:47:46.115Z,97.39
2019-03-30T05:48:46.101Z,97.60
2019-03-30T05:49:46.090Z,97.39
2019-03-30T05:50:46.078Z,97.04
2019-03-30T05:51:46.068Z,97.45
2019-03-30T05:52:46.068Z,97.66
2019-03-30T05:53:46.050Z,97.35
2019-03-30T05:54:46.034Z,97.45
2019-03-30T05:55:46.023Z,97.50
2019-03-30T05:56:46.003Z,97.45
2019-03-30T05:57:46.000Z,97.66
2019-03-30T05:58:46.011Z,97.14
2019-03-30T05:59:45.974Z,97.35
2019-03-30T06:00:45.970Z,97.35
2019-03-30T06:01:45.952Z,97.45
2019-03-30T06:02:45.937Z,97.45
2019-03-30T06:03:45.943Z,97.45
2019-03-30T06:04:45.940Z,97.45
2019-03-30T06:05:45.912Z,97.25
2019-03-30T06:06:45.904Z,97.00
2019-03-30T06:07:45.883Z,97.31
2019-03-30T06:08:45.875Z,97.35
2019-03-30T06:09:45.879Z,97.31
2019-03-30T06:10:45.857Z,97.31
2019-03-30T06:11:45.839Z,97.41
2019-03-30T06:12:45.827Z,97.41
2019-03-30T06:13:45.820Z,97.20
2019-03-30T06:14:45.807Z,97.31
2019-03-30T06:15:45.828Z,97.10
2019-03-30T06:16:45.787Z,96.79
2019-03-30T06:17:45.772Z,96.89
2019-03-30T06:18:45.756Z,96.79
2019-03-30T06:19:45.755Z,96.79
2019-03-30T06:20:45.738Z,96.75
2019-03-30T06:21:45.739Z,97.06
2019-03-30T06:22:45.727Z,97.16
2019-03-30T06:23:48.460Z,96.75
2019-03-30T06:24:45.705Z,96.95
2019-03-30T06:25:45.680Z,96.75
2019-03-30T06:26:45.695Z,96.85
2019-03-30T06:27:45.655Z,97.36
2019-03-30T06:28:45.648Z,96.64
2019-03-30T06:29:45.637Z,96.64
2019-03-30T06:30:45.631Z,96.64
2019-03-30T06:31:46.842Z,96.95
2019-03-30T06:32:45.618Z,96.85
2019-03-30T06:33:45.591Z,96.80
2019-03-30T06:34:45.584Z,96.80
2019-03-30T06:35:45.572Z,96.29
2019-03-30T06:36:45.562Z,96.39
2019-03-30T06:37:45.564Z,96.39
2019-03-30T06:38:45.556Z,96.39
2019-03-30T06:39:45.527Z,96.45
2019-03-30T06:40:45.520Z,96.66
2019-03-30T06:41:45.507Z,96.66
2019-03-30T06:42:45.492Z,95.42
2019-03-30T06:43:45.480Z,95.52
2019-03-30T06:44:45.489Z,95.78
2019-03-30T06:45:45.456Z,95.31
2019-03-30T06:46:45.455Z,95.31
2019-03-30T06:47:45.435Z,95.48
2019-03-30T06:48:45.429Z,95.17
2019-03-30T06:49:45.432Z,95.06
2019-03-30T06:50:45.403Z,94.92
2019-03-30T06:51:45.393Z,94.81
2019-03-30T06:52:56.871Z,94.92
2019-03-30T06:53:46.368Z,95.12
2019-03-30T06:54:45.357Z,94.09
2019-03-30T06:55:45.363Z,94.81
2019-03-30T06:56:45.335Z,94.50
2019-03-30T06:57:45.323Z,94.87
2019-03-30T06:58:45.311Z,94.56
2019-03-30T06:59:45.301Z,94.87
2019-03-30T07:00:45.286Z,93.90
2019-03-30T07:01:45.293Z,94.82
2019-03-30T07:02:45.267Z,94.67
2019-03-30T07:03:45.256Z,94.21
2019-03-30T07:04:45.253Z,94.10
2019-03-30T07:05:45.346Z,94.00
2019-03-30T07:06:45.235Z,93.38
2019-03-30T07:07:45.213Z,93.18
2019-03-30T07:08:45.195Z,93.59
2019-03-30T07:09:45.187Z,92.93
2019-03-30T07:10:45.177Z,92.31
2019-03-30T07:11:45.165Z,91.07
2019-03-30T07:12:45.172Z,88.41
2019-03-30T07:13:45.139Z,87.54
2019-03-30T07:14:45.131Z,87.13
2019-03-30T07:15:45.123Z,86.68
2019-03-30T07:16:45.112Z,85.44
2019-03-30T07:17:45.150Z,84.48
2019-03-30T07:18:45.101Z,84.95
2019-03-30T07:19:45.087Z,84.75
2019-03-30T07:20:45.067Z,84.85
2019-03-30T07:21:45.052Z,84.64
2019-03-30T07:22:45.043Z,84.54
2019-03-30T07:23:45.028Z,84.34
2019-03-30T07:24:45.027Z,84.54
2019-03-30T07:25:45.008Z,84.30
2019-03-30T07:26:44.996Z,83.89
2019-03-30T07:27:44.988Z,84.30
2019-03-30T07:28:47.119Z,83.37
2019-03-30T07:29:44.971Z,83.13
2019-03-30T07:30:45.002Z,82.71
2019-03-30T07:31:44.935Z,82.99
2019-03-30T07:32:44.927Z,82.68
2019-03-30T07:33:44.919Z,82.68
2019-03-30T07:34:44.907Z,82.99
2019-03-30T07:35:44.915Z,82.64
2019-03-30T07:36:44.883Z,82.75
2019-03-30T07:37:44.979Z,81.41
2019-03-30T07:38:44.863Z,80.79
2019-03-30T07:39:44.852Z,81.27
2019-03-30T07:40:44.842Z,81.37
2019-03-30T07:41:44.943Z,80.65
2019-03-30T07:42:44.811Z,81.27
2019-03-30T07:43:44.808Z,80.55
2019-03-30T07:44:44.802Z,80.14
2019-03-30T07:45:44.791Z,80.92
2019-03-30T07:46:44.767Z,80.72
2019-03-30T07:47:44.779Z,80.51
2019-03-30T07:48:44.749Z,79.59
2019-03-30T07:49:44.739Z,79.49
2019-03-30T07:50:44.728Z,78.25
2019-03-30T07:51:44.716Z,78.94
2019-03-30T07:52:44.703Z,77.81
2019-03-30T07:53:45.151Z,77.09
2019-03-30T07:54:44.683Z,75.73
2019-03-30T07:55:44.668Z,74.08
2019-03-30T07:56:44.659Z,74.26
2019-03-30T07:57:44.647Z,73.74
2019-03-30T07:58:44.635Z,74.36
2019-03-30T07:59:44.647Z,73.30
2019-03-30T08:00:44.611Z,73.50
2019-03-30T08:01:44.604Z,72.14
2019-03-30T08:02:44.591Z,71.59
2019-03-30T08:03:44.579Z,71.39
2019-03-30T08:04:44.567Z,71.19
2019-03-30T08:05:44.573Z,71.15
2019-03-30T08:06:44.547Z,70.13
2019-03-30T08:07:44.543Z,70.64
2019-03-30T08:08:44.522Z,69.72
2019-03-30T08:09:44.511Z,69.62
2019-03-30T08:10:44.499Z,70.03
2019-03-30T08:11:44.508Z,70.10
2019-03-30T08:12:44.479Z,69.89
2019-03-30T08:13:44.467Z,69.59
2019-03-30T08:14:45.203Z,69.86
2019-03-30T08:15:44.442Z,68.33
2019-03-30T08:16:44.431Z,67.92
2019-03-30T08:17:44.438Z,67.38
2019-03-30T08:18:44.411Z,67.99
2019-03-30T08:19:44.399Z,66.33
2019-03-30T08:20:44.392Z,66.94
2019-03-30T08:21:44.376Z,67.55
2019-03-30T08:22:44.395Z,65.41
2019-03-30T08:23:44.373Z,66.22
2019-03-30T08:24:44.343Z,66.30
2019-03-30T08:25:44.342Z,65.78
2019-03-30T08:26:44.319Z,66.88
2019-03-30T08:27:44.314Z,64.63
2019-03-30T08:28:44.328Z,64.70
2019-03-30T08:29:44.287Z,64.40
2019-03-30T08:30:44.275Z,63.45
2019-03-30T08:31:44.265Z,63.56
2019-03-30T08:32:44.256Z,61.72
2019-03-30T08:33:44.279Z,62.02
2019-03-30T08:34:44.256Z,62.81
2019-03-30T08:35:44.236Z,61.59
2019-03-30T08:36:44.208Z,61.18
2019-03-30T08:37:44.192Z,60.85
2019-03-30T08:38:44.184Z,61.87
2019-03-30T08:39:44.189Z,60.95
2019-03-30T08:40:44.159Z,60.14
2019-03-30T08:41:44.164Z,61.05
2019-03-30T08:42:44.139Z,61.36
2019-03-30T08:43:44.128Z,60.52
2019-03-30T08:44:44.124Z,59.30
2019-03-30T08:45:44.119Z,58.69
2019-03-30T08:46:44.094Z,58.78
2019-03-30T08:47:44.083Z,58.69
2019-03-30T08:48:44.074Z,58.76
2019-03-30T08:49:44.056Z,58.96
2019-03-30T08:50:44.061Z,59.16
2019-03-30T08:51:44.037Z,60.38
2019-03-30T08:52:44.048Z,61.30
2019-03-30T08:53:53.961Z,60.66
2019-03-30T08:54:44.999Z,61.04
2019-03-30T08:55:43.991Z,59.52
2019-03-30T08:56:43.987Z,58.17
2019-03-30T08:57:43.970Z,58.58
2019-03-30T08:58:43.976Z,57.12
2019-03-30T08:59:43.947Z,57.53
2019-03-30T09:00:43.939Z,55.80
2019-03-30T09:01:43.923Z,57.43
2019-03-30T09:02:43.912Z,57.10
2019-03-30T09:03:43.896Z,56.99
2019-03-30T09:04:43.910Z,56.79
2019-03-30T09:05:43.880Z,57.10
2019-03-30T09:06:43.867Z,55.98
2019-03-30T09:07:43.915Z,58.11
2019-03-30T09:08:43.844Z,57.15
2019-03-30T09:09:43.837Z,56.54
2019-03-30T09:10:43.835Z,55.73
2019-03-30T09:11:43.922Z,57.15
2019-03-30T09:12:43.799Z,58.54
2019-03-30T09:13:43.787Z,57.42
2019-03-30T09:14:43.775Z,55.17
2019-03-30T09:15:43.759Z,53.75
2019-03-30T09:16:43.762Z,53.02
2019-03-30T09:17:43.744Z,52.23
2019-03-30T09:18:43.732Z,53.34
2019-03-30T09:19:43.720Z,53.75
2019-03-30T09:20:43.703Z,54.26
2019-03-30T09:21:43.707Z,54.18
2019-03-30T09:22:43.686Z,55.80
2019-03-30T09:23:43.671Z,55.88
2019-03-30T09:24:43.659Z,55.50
2019-03-30T09:25:43.666Z,55.90
2019-03-30T09:26:43.639Z,53.75
2019-03-30T09:27:43.634Z,54.97
2019-03-30T09:28:43.615Z,53.45
2019-03-30T09:29:43.603Z,54.05
2019-03-30T09:30:43.596Z,53.75
2019-03-30T09:31:43.578Z,54.05
2019-03-30T09:32:45.195Z,54.13
2019-03-30T09:33:43.556Z,53.63
2019-03-30T09:34:43.543Z,53.22
2019-03-30T09:35:43.537Z,53.19
2019-03-30T09:36:43.659Z,51.40
2019-03-30T09:37:43.514Z,51.28
2019-03-30T09:38:43.519Z,52.39
2019-03-30T09:39:43.500Z,52.19
2019-03-30T09:40:43.481Z,51.48
2019-03-30T09:41:43.469Z,51.07
2019-03-30T09:42:43.458Z,51.88
2019-03-30T09:43:43.448Z,51.68
2019-03-30T09:44:43.453Z,52.08
2019-03-30T09:45:43.427Z,51.88
2019-03-30T09:46:43.410Z,51.25
2019-03-30T09:47:43.402Z,51.25
2019-03-30T09:48:43.397Z,51.32
2019-03-30T09:49:43.374Z,51.73
2019-03-30T09:50:43.380Z,51.93
2019-03-30T09:51:43.354Z,51.32
2019-03-30T09:52:43.344Z,52.03
2019-03-30T09:53:43.330Z,51.43
2019-03-30T09:54:43.322Z,51.12
2019-03-30T09:55:43.311Z,51.03
2019-03-30T09:56:43.308Z,51.15
2019-03-30T09:57:43.293Z,50.64
2019-03-30T09:58:43.274Z,52.06
2019-03-30T09:59:43.264Z,51.35
2019-03-30T10:00:43.254Z,52.08
2019-03-30T10:01:43.296Z,52.87
2019-03-30T10:02:43.233Z,53.55
2019-03-30T10:03:43.224Z,52.03
2019-03-30T10:04:43.208Z,51.32
2019-03-30T10:05:43.196Z,51.73
2019-03-30T10:06:43.182Z,51.00
2019-03-30T10:07:43.186Z,50.80
2019-03-30T10:08:43.167Z,49.71
2019-03-30T10:09:43.180Z,50.62
2019-03-30T10:10:43.143Z,52.21
2019-03-30T10:11:43.131Z,50.42
2019-03-30T10:12:43.135Z,49.79
2019-03-30T10:13:43.234Z,49.21
2019-03-30T10:14:43.099Z,50.09
2019-03-30T10:15:43.087Z,50.90
2019-03-30T10:16:43.073Z,50.52
2019-03-30T10:17:43.065Z,51.12
2019-03-30T10:18:43.065Z,51.23
2019-03-30T10:19:43.045Z,52.14
2019-03-30T10:20:43.027Z,51.32
2019-03-30T10:21:43.020Z,51.53
2019-03-30T10:22:43.010Z,51.23
2019-03-30T10:23:42.994Z,51.10
2019-03-30T10:24:42.996Z,50.59
2019-03-30T10:25:42.972Z,50.19
2019-03-30T10:26:42.959Z,49.18
2019-03-30T10:27:42.947Z,50.37
2019-03-30T10:28:42.943Z,49.04
2019-03-30T10:29:42.944Z,48.53
2019-03-30T10:30:42.916Z,47.70
2019-03-30T10:31:42.913Z,46.97
2019-03-30T10:32:42.895Z,47.58
2019-03-30T10:33:42.883Z,47.58
2019-03-30T10:34:42.874Z,47.88
2019-03-30T10:35:42.883Z,47.58
2019-03-30T10:36:42.853Z,48.10
2019-03-30T10:37:42.841Z,47.80
2019-03-30T10:38:42.876Z,48.43
2019-03-30T10:39:42.816Z,48.30
2019-03-30T10:40:42.852Z,48.73
2019-03-30T10:41:42.806Z,48.73
2019-03-30T10:42:42.784Z,49.33
2019-03-30T10:43:42.770Z,50.37
2019-03-30T10:44:42.768Z,49.84
2019-03-30T10:45:42.927Z,49.33
2019-03-30T10:46:42.753Z,48.83
2019-03-30T10:47:42.782Z,49.64
2019-03-30T10:48:42.713Z,48.93
2019-03-30T10:49:42.722Z,49.04
2019-03-30T10:50:42.697Z,50.32
2019-03-30T10:51:42.678Z,48.00
2019-03-30T10:52:42.685Z,48.41
2019-03-30T10:53:42.701Z,47.90
2019-03-30T10:54:52.622Z,47.78
2019-03-30T10:55:43.638Z,43.77
2019-03-30T10:56:42.625Z,44.95
2019-03-30T10:57:42.623Z,42.60
2019-03-30T10:58:42.632Z,41.39
2019-03-30T10:59:42.595Z,41.39
2019-03-30T11:00:42.577Z,41.27
2019-03-30T11:01:42.565Z,42.35
2019-03-30T11:02:42.559Z,41.37
2019-03-30T11:03:42.554Z,41.35
2019-03-30T11:04:42.553Z,41.27
2019-03-30T11:05:42.530Z,41.65
2019-03-30T11:06:42.510Z,41.06
2019-03-30T11:07:42.499Z,41.45
2019-03-30T11:08:42.486Z,42.05
2019-03-30T11:09:42.477Z,40.12
2019-03-30T11:10:42.572Z,40.92
2019-03-30T11:11:42.467Z,39.52
2019-03-30T11:12:42.441Z,40.33
2019-03-30T11:13:42.430Z,39.84
2019-03-30T11:14:42.693Z,39.94
2019-03-30T11:15:42.410Z,40.04
2019-03-30T11:16:42.408Z,39.76
2019-03-30T11:17:42.385Z,39.94
2019-03-30T11:18:42.375Z,39.84
2019-03-30T11:19:42.365Z,39.65
2019-03-30T11:20:42.353Z,40.86
2019-03-30T11:21:42.358Z,39.64
2019-03-30T11:22:42.326Z,40.86
2019-03-30T11:23:42.322Z,40.18
2019-03-30T11:24:42.305Z,41.27
2019-03-30T11:25:42.303Z,40.56
2019-03-30T11:26:42.288Z,39.76
2019-03-30T11:27:42.303Z,39.23
2019-03-30T11:28:42.259Z,39.96
2019-03-30T11:29:42.248Z,39.56
2019-03-30T11:30:42.236Z,40.04
2019-03-30T11:31:42.230Z,39.94
2019-03-30T11:32:42.220Z,40.14
2019-03-30T11:33:42.219Z,39.64
2019-03-30T11:34:42.192Z,38.13
2019-03-30T11:35:42.179Z,39.34
2019-03-30T11:36:42.175Z,38.13
2019-03-30T11:37:42.163Z,38.23
2019-03-30T11:38:42.163Z,38.53
2019-03-30T11:39:42.140Z,39.52
2019-03-30T11:40:42.132Z,39.38
2019-03-30T11:41:42.116Z,37.98
2019-03-30T11:42:42.107Z,37.77
2019-03-30T11:43:42.094Z,40.28
2019-03-30T11:44:42.094Z,39.38
2019-03-30T11:45:42.073Z,39.38
2019-03-30T11:46:42.062Z,40.30
2019-03-30T11:47:42.051Z,41.99
2019-03-30T11:48:42.141Z,41.61
2019-03-30T11:49:42.026Z,42.84
2019-03-30T11:50:42.025Z,42.55
2019-03-30T11:51:42.022Z,43.06
2019-03-30T11:52:41.994Z,42.88
2019-03-30T11:53:42.000Z,43.30
2019-03-30T11:54:41.972Z,45.01
2019-03-30T11:55:41.960Z,45.03
2019-03-30T11:56:41.947Z,45.46
2019-03-30T11:57:41.951Z,44.95
2019-03-30T11:58:41.927Z,44.15
2019-03-30T11:59:41.912Z,45.76
2019-03-30T12:00:41.902Z,46.06
2019-03-30T12:01:41.890Z,45.46
2019-03-30T12:02:41.884Z,45.97
2019-03-30T12:03:41.886Z,45.66
2019-03-30T12:04:41.857Z,46.17
2019-03-30T12:05:41.842Z,45.56
2019-03-30T12:06:41.834Z,45.26
2019-03-30T12:07:41.826Z,46.26
2019-03-30T12:08:41.814Z,45.66
2019-03-30T12:09:41.826Z,45.56
2019-03-30T12:10:41.790Z,45.36
2019-03-30T12:11:41.782Z,44.33
2019-03-30T12:12:41.768Z,44.33
2019-03-30T12:13:41.754Z,44.73
2019-03-30T12:14:41.742Z,44.41
2019-03-30T12:15:41.750Z,44.29
2019-03-30T12:16:41.746Z,41.37
2019-03-30T12:17:41.715Z,42.19
2019-03-30T12:18:41.698Z,42.41
2019-03-30T12:19:41.719Z,41.69
2019-03-30T12:20:41.673Z,42.41
2019-03-30T12:21:41.671Z,43.32
2019-03-30T12:22:41.733Z,44.11
2019-03-30T12:23:42.814Z,42.40
2019-03-30T12:24:41.643Z,41.17
2019-03-30T12:25:41.670Z,39.45
2019-03-30T12:26:41.617Z,40.58
2019-03-30T12:27:41.598Z,40.99
2019-03-30T12:28:41.598Z,40.48
2019-03-30T12:29:44.422Z,39.78
2019-03-30T12:30:41.566Z,38.87
2019-03-30T12:31:41.550Z,38.97
2019-03-30T12:32:41.716Z,37.95
2019-03-30T12:33:41.542Z,37.87
2019-03-30T12:34:41.518Z,37.96
2019-03-30T12:35:41.506Z,38.25
2019-03-30T12:36:41.491Z,38.03
2019-03-30T12:37:41.482Z,37.21
2019-03-30T12:38:41.470Z,38.21
2019-03-30T12:39:41.494Z,37.81
2019-03-30T12:40:41.462Z,39.42
2019-03-30T12:41:41.442Z,39.72
2019-03-30T12:42:41.426Z,38.73
2019-03-30T12:43:41.414Z,39.56
2019-03-30T12:44:41.402Z,41.06
2019-03-30T12:45:41.414Z,39.64
2019-03-30T12:46:41.378Z,38.95
2019-03-30T12:47:41.366Z,38.35
2019-03-30T12:48:41.364Z,39.25
2019-03-30T12:49:41.346Z,39.98
2019-03-30T12:50:41.336Z,40.86
2019-03-30T12:51:41.334Z,39.23
2019-03-30T12:52:41.314Z,39.32